Cap Theodora — SVAM5 — position and weather

sailwx.info

Track history (hours):
 
Tides and Currents Weather Stations Pressure Air Temp Water Temp Dewpoint Dewpoint Depression Visibility Wind Speed Wind Dir Waves Ship Positions

Cap Theodora

Last reported at 2014-Oct-22 18:20 UTC. Time now 2014-Dec-18 22:22 UTC.
Position N 31°05' W 014°42'.
Warning: this ship's position is 57 days out of date.

Length 274 m; draft 9.2 m.

Type: Tanker. MMSI: 240840000.

Date/timePositionNaut miles runAvg speedWind from/ knotsBaromVisibWave heightAir tempDewpointWater temp
2014-Oct-22 18:20N 31°05' W 014°42'1214.7
2014-Oct-22 17:30N 31°17' W 014°38'16815.1
2014-Oct-22 06:19N 33°59' W 013°46'1215.0
2014-Oct-22 05:32N 34°10' W 013°43'1514.7
2014-Oct-22 04:31N 34°25' W 013°38'7914.6
2014-Oct-21 23:05N 35°41' W 013°12'814.3
2014-Oct-21 22:33N 35°49' W 013°09'10314.0
2014-Oct-21 15:12N 37°28' W 012°36'913.5
2014-Oct-21 14:33N 37°37' W 012°33'1312.9
2014-Oct-21 13:33N 37°49' W 012°29'1312.5
2014-Oct-21 12:33N 38°01' W 012°25'2913.4
2014-Oct-21 10:22N 38°30' W 012°15'1214.0
2014-Oct-21 09:32N 38°41' W 012°11'2612.5
2014-Oct-21 07:28N 39°06' W 012°02'1111.6
2014-Oct-21 06:33N 39°16' W 011°58'1311.7
2014-Oct-21 05:26N 39°29' W 011°54'1511.3
2014-Oct-21 04:08N 39°43' W 011°49'2011.1
2014-Oct-21 02:19N 40°02' W 011°42'1110.9
2014-Oct-21 01:20N 40°13' W 011°38'  
2014-Oct-14 06:18N 38°07' W 009°46'1714.5
2014-Oct-14 05:09N 37°51' W 009°42'914.7
2014-Oct-14 04:32N 37°42' W 009°39'  
Track history (hours):
 
Tides and Currents Weather Stations Pressure Air Temp Water Temp Dewpoint Dewpoint Depression Visibility Wind Speed Wind Dir Waves Ship Positions

Cap Theodora

Last reported at 2014-Oct-22 18:20 UTC. Time now 2014-Dec-18 22:22 UTC.
Position N 31°05' W 014°42'.
Warning: this ship's position is 57 days out of date.

Length 274 m; draft 9.2 m.

Type: Tanker. MMSI: 240840000.

Date/timePositionNaut miles runAvg speedWind from/ knotsBaromVisibWave heightAir tempDewpointWater temp
2014-Oct-22 18:20N 31°05' W 014°42'1214.7
2014-Oct-22 17:30N 31°17' W 014°38'16815.1
2014-Oct-22 06:19N 33°59' W 013°46'1215.0
2014-Oct-22 05:32N 34°10' W 013°43'1514.7
2014-Oct-22 04:31N 34°25' W 013°38'7914.6
2014-Oct-21 23:05N 35°41' W 013°12'814.3
2014-Oct-21 22:33N 35°49' W 013°09'10314.0
2014-Oct-21 15:12N 37°28' W 012°36'913.5
2014-Oct-21 14:33N 37°37' W 012°33'1312.9
2014-Oct-21 13:33N 37°49' W 012°29'1312.5
2014-Oct-21 12:33N 38°01' W 012°25'2913.4
2014-Oct-21 10:22N 38°30' W 012°15'1214.0
2014-Oct-21 09:32N 38°41' W 012°11'2612.5
2014-Oct-21 07:28N 39°06' W 012°02'1111.6
2014-Oct-21 06:33N 39°16' W 011°58'1311.7
2014-Oct-21 05:26N 39°29' W 011°54'1511.3
2014-Oct-21 04:08N 39°43' W 011°49'2011.1
2014-Oct-21 02:19N 40°02' W 011°42'1110.9
2014-Oct-21 01:20N 40°13' W 011°38'  
2014-Oct-14 06:18N 38°07' W 009°46'1714.5
2014-Oct-14 05:09N 37°51' W 009°42'914.7
2014-Oct-14 04:32N 37°42' W 009°39'  

Dump ship's entire track history